No particular awareness of the weather is required.    There are no Weather-warnings


Meteo18 Weather Cam more information Meteo18 Weather Cam


Thunder radar more information blitzortung!


Rain radar more information rain snow radar


Visit our other weather sites:

Template documentation
and downloads

And another site



Weather Underground History page Text

Daily Summary for August 8, 2017 Units:  Both    English   Metric
« Previous Day
Next Day »
Daily Weekly Monthly Yearly Custom
  High: Low: Average:
Temperature: 70.3 °F /  21.3 °C 58.3 °F /  14.6 °C 63.3 °F /  17.4 °C
Dew Point: 61 °F /  16.1 °C 50.4 °F /  10.2 °C 56.5 °F /  13.6 °C
Humidity: 94 % 61 % 79 %
Wind Speed: 21 mph /  33.8 km/h - 4.2 mph /  6.8 km/h
Wind Gust: 30 mph /  48.3 km/h - -
Wind:- - WSW
Pressure: 30.1 in /  1017.5 hPa 29.8 in /  1009.4 hPa -
Precipitation: 0.44 in /  11.2 mm    
Historical Graphs
 
 
Tabular Data for August 8, 2017
Time Temperature Dew Point Pressure Wind Wind Speed Wind Gust Humidity Rainfall Rate (Hourly)
00:02 64.9 °F /  18.3 °C 57.6 °F /  14.2 °C 29.9 in /  1012.4 hPa WNW 2 mph /  3.2 km/h 2 mph /  3.2 km/h 77 % 0 in /  0.0 mm
00:07 64.6 °F /  18.1 °C 57.6 °F /  14.2 °C 29.9 in /  1012.4 hPa WNW 1 mph /  1.6 km/h 3 mph /  4.8 km/h 78 % 0 in /  0.0 mm
00:12 64.2 °F /  17.9 °C 57.2 °F /  14.0 °C 29.9 in /  1012.4 hPa Calm   3 mph /  4.8 km/h 78 % 0 in /  0.0 mm
00:17 64.2 °F /  17.9 °C 57.6 °F /  14.2 °C 29.9 in /  1012.4 hPa West 1 mph /  1.6 km/h 3 mph /  4.8 km/h 79 % 0 in /  0.0 mm
00:22 64.4 °F /  18.0 °C 57.7 °F /  14.3 °C 29.9 in /  1012.4 hPa Calm   3 mph /  4.8 km/h 79 % 0 in /  0.0 mm
00:27 64.6 °F /  18.1 °C 57.9 °F /  14.4 °C 29.9 in /  1012.4 hPa Calm   2 mph /  3.2 km/h 79 % 0 in /  0.0 mm
00:32 64.6 °F /  18.1 °C 57.9 °F /  14.4 °C 29.9 in /  1012.1 hPa Calm   1 mph /  1.6 km/h 79 % 0 in /  0.0 mm
00:42 64.2 °F /  17.9 °C 58.3 °F /  14.6 °C 29.9 in /  1012.1 hPa NW 1 mph /  1.6 km/h 1 mph /  1.6 km/h 81 % 0 in /  0.0 mm
00:47 64 °F /  17.8 °C 57.7 °F /  14.3 °C 29.9 in /  1012.1 hPa Calm   2 mph /  3.2 km/h 80 % 0 in /  0.0 mm
00:52 64.2 °F /  17.9 °C 57.6 °F /  14.2 °C 29.9 in /  1012.4 hPa Calm   2 mph /  3.2 km/h 79 % 0 in /  0.0 mm
00:57 64.6 °F /  18.1 °C 57.6 °F /  14.2 °C 29.9 in /  1012.4 hPa Calm   2 mph /  3.2 km/h 78 % 0 in /  0.0 mm
01:02 64.6 °F /  18.1 °C 57.6 °F /  14.2 °C 29.9 in /  1012.4 hPa Calm   1 mph /  1.6 km/h 78 % 0 in /  0.0 mm
01:07 64.8 °F /  18.2 °C 58.1 °F /  14.5 °C 29.9 in /  1012.1 hPa Calm   2 mph /  3.2 km/h 79 % 0 in /  0.0 mm
01:12 64.6 °F /  18.1 °C 57.6 °F /  14.2 °C 29.9 in /  1012.1 hPa Calm   2 mph /  3.2 km/h 78 % 0 in /  0.0 mm
01:17 64.4 °F /  18.0 °C 58.8 °F /  14.9 °C 29.9 in /  1012.1 hPa SE 1 mph /  1.6 km/h 2 mph /  3.2 km/h 82 % 0 in /  0.0 mm
01:22 63.9 °F /  17.7 °C 59.2 °F /  15.1 °C 29.9 in /  1012.1 hPa SSE 1 mph /  1.6 km/h 3 mph /  4.8 km/h 85 % 0 in /  0.0 mm
01:27 63.5 °F /  17.5 °C 59.2 °F /  15.1 °C 29.9 in /  1012.1 hPa Calm   3 mph /  4.8 km/h 86 % 0 in /  0.0 mm
01:32 63.3 °F /  17.4 °C 59.4 °F /  15.2 °C 29.9 in /  1012.1 hPa Calm   2 mph /  3.2 km/h 87 % 0 in /  0.0 mm
01:37 63.1 °F /  17.3 °C 59.2 °F /  15.1 °C 29.9 in /  1012.1 hPa Calm   2 mph /  3.2 km/h 87 % 0 in /  0.0 mm
01:42 63 °F /  17.2 °C 59.4 °F /  15.2 °C 29.9 in /  1012.1 hPa Calm   2 mph /  3.2 km/h 88 % 0 in /  0.0 mm
01:47 63 °F /  17.2 °C 59.4 °F /  15.2 °C 29.9 in /  1012.1 hPa Calm   1 mph /  1.6 km/h 88 % 0 in /  0.0 mm
01:52 62.8 °F /  17.1 °C 58.8 °F /  14.9 °C 29.9 in /  1012.1 hPa Calm   1 mph /  1.6 km/h 87 % 0 in /  0.0 mm
01:57 62.8 °F /  17.1 °C 58.5 °F /  14.7 °C 29.9 in /  1012.1 hPa Calm   1 mph /  1.6 km/h 86 % 0 in /  0.0 mm
02:02 63 °F /  17.2 °C 57.7 °F /  14.3 °C 29.9 in /  1011.7 hPa Calm   1 mph /  1.6 km/h 83 % 0 in /  0.0 mm
02:07 63.3 °F /  17.4 °C 57.7 °F /  14.3 °C 29.9 in /  1011.7 hPa Calm   1 mph /  1.6 km/h 82 % 0 in /  0.0 mm
02:12 63.5 °F /  17.5 °C 57.9 °F /  14.4 °C 29.9 in /  1011.7 hPa Calm   1 mph /  1.6 km/h 82 % 0 in /  0.0 mm
02:17 63.5 °F /  17.5 °C 57.9 °F /  14.4 °C 29.9 in /  1011.7 hPa WNW 1 mph /  1.6 km/h 1 mph /  1.6 km/h 82 % 0 in /  0.0 mm
02:22 63.3 °F /  17.4 °C 57.7 °F /  14.3 °C 29.9 in /  1011.7 hPa Calm   1 mph /  1.6 km/h 82 % 0 in /  0.0 mm
02:27 63.3 °F /  17.4 °C 57.4 °F /  14.1 °C 29.9 in /  1011.7 hPa WNW 1 mph /  1.6 km/h 1 mph /  1.6 km/h 81 % 0 in /  0.0 mm
02:32 63.1 °F /  17.3 °C 56.8 °F /  13.8 °C 29.9 in /  1011.7 hPa Calm   3 mph /  4.8 km/h 80 % 0 in /  0.0 mm
02:37 63.1 °F /  17.3 °C 56.8 °F /  13.8 °C 29.9 in /  1011.7 hPa Calm   3 mph /  4.8 km/h 80 % 0 in /  0.0 mm
02:42 63.3 °F /  17.4 °C 57 °F /  13.9 °C 29.9 in /  1011.7 hPa Calm   3 mph /  4.8 km/h 80 % 0 in /  0.0 mm
02:52 63.5 °F /  17.5 °C 56.8 °F /  13.8 °C 29.9 in /  1011.4 hPa NNE 1 mph /  1.6 km/h 2 mph /  3.2 km/h 79 % 0 in /  0.0 mm
02:57 63.7 °F /  17.6 °C 56.7 °F /  13.7 °C 29.9 in /  1011.4 hPa Calm   2 mph /  3.2 km/h 78 % 0 in /  0.0 mm
03:02 63.7 °F /  17.6 °C 56.3 °F /  13.5 °C 29.9 in /  1011.4 hPa WNW 1 mph /  1.6 km/h 2 mph /  3.2 km/h 77 % 0 in /  0.0 mm
03:07 63.7 °F /  17.6 °C 56.3 °F /  13.5 °C 29.9 in /  1011.4 hPa Calm   2 mph /  3.2 km/h 77 % 0 in /  0.0 mm
03:12 63.7 °F /  17.6 °C 56.3 °F /  13.5 °C 29.9 in /  1011.1 hPa Calm   2 mph /  3.2 km/h 77 % 0 in /  0.0 mm
03:17 63.7 °F /  17.6 °C 56.3 °F /  13.5 °C 29.9 in /  1011.1 hPa Calm   2 mph /  3.2 km/h 77 % 0 in /  0.0 mm
03:22 63.9 °F /  17.7 °C 56.1 °F /  13.4 °C 29.9 in /  1011.1 hPa NW 1 mph /  1.6 km/h 3 mph /  4.8 km/h 76 % 0 in /  0.0 mm
03:27 64.2 °F /  17.9 °C 56.1 °F /  13.4 °C 29.9 in /  1011.1 hPa WNW 2 mph /  3.2 km/h 3 mph /  4.8 km/h 75 % 0 in /  0.0 mm
03:32 64.6 °F /  18.1 °C 55.8 °F /  13.2 °C 29.9 in /  1011.1 hPa Calm   3 mph /  4.8 km/h 73 % 0 in /  0.0 mm
03:37 64.6 °F /  18.1 °C 55.8 °F /  13.2 °C 29.9 in /  1011.1 hPa Calm   3 mph /  4.8 km/h 73 % 0 in /  0.0 mm
03:42 64.8 °F /  18.2 °C 55.6 °F /  13.1 °C 29.9 in /  1011.1 hPa WSW 1 mph /  1.6 km/h 3 mph /  4.8 km/h 72 % 0 in /  0.0 mm
03:52 64.9 °F /  18.3 °C 55.8 °F /  13.2 °C 29.9 in /  1012.1 hPa WSW 6 mph /  9.7 km/h 8 mph /  12.9 km/h 72 % 0 in /  0.0 mm
03:57 65.3 °F /  18.5 °C 54.9 °F /  12.7 °C 29.9 in /  1012.1 hPa WSW 15 mph /  24.1 km/h 15 mph /  24.1 km/h 69 % 0 in /  0.0 mm
04:02 64.2 °F /  17.9 °C 56.1 °F /  13.4 °C 29.9 in /  1012.4 hPa West 10 mph /  16.1 km/h 19 mph /  30.6 km/h 75 % 0.02 in /  0.5 mm
04:07 63.1 °F /  17.3 °C 56.5 °F /  13.6 °C 29.9 in /  1011.7 hPa WNW 4 mph /  6.4 km/h 20 mph /  32.2 km/h 79 % 0.02 in /  0.5 mm
04:12 62.4 °F /  16.9 °C 56.8 °F /  13.8 °C 29.9 in /  1011.7 hPa WNW 5 mph /  8.0 km/h 20 mph /  32.2 km/h 82 % 0.02 in /  0.5 mm
04:17 62.1 °F /  16.7 °C 56.8 °F /  13.8 °C 29.9 in /  1011.7 hPa NW 1 mph /  1.6 km/h 20 mph /  32.2 km/h 83 % 0.02 in /  0.5 mm
04:27 61.2 °F /  16.2 °C 57 °F /  13.9 °C 29.9 in /  1011.7 hPa NW 5 mph /  8.0 km/h 10 mph /  16.1 km/h 86 % 0.03 in /  0.8 mm
04:32 61 °F /  16.1 °C 56.8 °F /  13.8 °C 29.9 in /  1011.7 hPa West 1 mph /  1.6 km/h 10 mph /  16.1 km/h 86 % 0.03 in /  0.8 mm
04:42 60.8 °F /  16.0 °C 56.8 °F /  13.8 °C 29.9 in /  1011.7 hPa WSW 5 mph /  8.0 km/h 9 mph /  14.5 km/h 87 % 0.04 in /  1.0 mm
04:47 60.8 °F /  16.0 °C 56.8 °F /  13.8 °C 29.9 in /  1012.1 hPa Calm   8 mph /  12.9 km/h 87 % 0.04 in /  1.0 mm
04:52 60.6 °F /  15.9 °C 56.7 °F /  13.7 °C 29.9 in /  1012.1 hPa WSW 5 mph /  8.0 km/h 8 mph /  12.9 km/h 87 % 0.05 in /  1.3 mm
04:57 60.6 °F /  15.9 °C 57 °F /  13.9 °C 29.9 in /  1012.1 hPa SW 1 mph /  1.6 km/h 8 mph /  12.9 km/h 88 % 0.04 in /  1.0 mm
05:02 60.4 °F /  15.8 °C 56.8 °F /  13.8 °C 29.9 in /  1011.7 hPa Calm   6 mph /  9.7 km/h 88 % 0.03 in /  0.8 mm
05:07 60.4 °F /  15.8 °C 56.8 °F /  13.8 °C 29.9 in /  1011.1 hPa Calm   6 mph /  9.7 km/h 88 % 0.04 in /  1.0 mm
05:12 60.4 °F /  15.8 °C 56.8 °F /  13.8 °C 29.9 in /  1011.4 hPa Calm   4 mph /  6.4 km/h 88 % 0.04 in /  1.0 mm
05:22 60.3 °F /  15.7 °C 56.7 °F /  13.7 °C 29.9 in /  1011.1 hPa Calm   5 mph /  8.0 km/h 88 % 0.03 in /  0.8 mm
05:32 59.9 °F /  15.5 °C 57 °F /  13.9 °C 29.8 in /  1010.4 hPa Calm   5 mph /  8.0 km/h 90 % 0.03 in /  0.8 mm
05:37 59.9 °F /  15.5 °C 57 °F /  13.9 °C 29.8 in /  1010.4 hPa Calm   3 mph /  4.8 km/h 90 % 0.02 in /  0.5 mm
05:42 59.7 °F /  15.4 °C 57 °F /  13.9 °C 29.8 in /  1010.0 hPa NE 5 mph /  8.0 km/h 5 mph /  8.0 km/h 91 % 0.02 in /  0.5 mm
05:47 59.7 °F /  15.4 °C 57 °F /  13.9 °C 29.8 in /  1009.4 hPa NE 2 mph /  3.2 km/h 7 mph /  11.3 km/h 91 % 0.04 in /  1.0 mm
05:52 59.7 °F /  15.4 °C 57 °F /  13.9 °C 29.8 in /  1010.7 hPa WNW 1 mph /  1.6 km/h 7 mph /  11.3 km/h 91 % 0.04 in /  1.0 mm
06:02 59.5 °F /  15.3 °C 57.2 °F /  14.0 °C 29.8 in /  1010.4 hPa Calm   3 mph /  4.8 km/h 92 % 0.04 in /  1.0 mm
06:12 59.5 °F /  15.3 °C 57.2 °F /  14.0 °C 29.8 in /  1010.0 hPa East 2 mph /  3.2 km/h 2 mph /  3.2 km/h 92 % 0.03 in /  0.8 mm
06:17 59.4 °F /  15.2 °C 57.4 °F /  14.1 °C 29.8 in /  1010.0 hPa Calm   2 mph /  3.2 km/h 93 % 0.02 in /  0.5 mm
06:22 59.4 °F /  15.2 °C 57.4 °F /  14.1 °C 29.8 in /  1010.4 hPa East 1 mph /  1.6 km/h 2 mph /  3.2 km/h 93 % 0.02 in /  0.5 mm
06:27 59.2 °F /  15.1 °C 57.2 °F /  14.0 °C 29.8 in /  1010.4 hPa Calm   2 mph /  3.2 km/h 93 % 0.02 in /  0.5 mm
06:32 59.2 °F /  15.1 °C 57.2 °F /  14.0 °C 29.8 in /  1010.0 hPa East 1 mph /  1.6 km/h 2 mph /  3.2 km/h 93 % 0.02 in /  0.5 mm
06:42 59 °F /  15.0 °C 57 °F /  13.9 °C 29.8 in /  1010.7 hPa Calm   2 mph /  3.2 km/h 93 % 0.02 in /  0.5 mm
06:47 58.8 °F /  14.9 °C 57 °F /  13.9 °C 29.8 in /  1010.7 hPa Calm   2 mph /  3.2 km/h 94 % 0.02 in /  0.5 mm
06:52 58.8 °F /  14.9 °C 57 °F /  13.9 °C 29.9 in /  1011.1 hPa Calm   1 mph /  1.6 km/h 94 % 0.01 in /  0.3 mm
06:57 58.8 °F /  14.9 °C 57 °F /  13.9 °C 29.9 in /  1011.1 hPa SSW 2 mph /  3.2 km/h 2 mph /  3.2 km/h 94 % 0 in /  0.0 mm
07:02 58.8 °F /  14.9 °C 57 °F /  13.9 °C 29.9 in /  1011.1 hPa WSW 4 mph /  6.4 km/h 4 mph /  6.4 km/h 94 % 0 in /  0.0 mm
07:12 59 °F /  15.0 °C 57.2 °F /  14.0 °C 29.9 in /  1011.4 hPa SW 2 mph /  3.2 km/h 5 mph /  8.0 km/h 94 % 0 in /  0.0 mm
07:17 59 °F /  15.0 °C 57.2 °F /  14.0 °C 29.9 in /  1011.4 hPa WSW 4 mph /  6.4 km/h 9 mph /  14.5 km/h 94 % 0 in /  0.0 mm
07:22 58.8 °F /  14.9 °C 57 °F /  13.9 °C 29.9 in /  1011.4 hPa WSW 3 mph /  4.8 km/h 9 mph /  14.5 km/h 94 % 0 in /  0.0 mm
07:32 59 °F /  15.0 °C 57.2 °F /  14.0 °C 29.9 in /  1011.4 hPa WSW 4 mph /  6.4 km/h 8 mph /  12.9 km/h 94 % 0 in /  0.0 mm
07:42 59 °F /  15.0 °C 57.2 °F /  14.0 °C 29.9 in /  1011.4 hPa WSW 3 mph /  4.8 km/h 6 mph /  9.7 km/h 94 % 0 in /  0.0 mm
07:52 58.8 °F /  14.9 °C 57 °F /  13.9 °C 29.9 in /  1011.7 hPa WSW 4 mph /  6.4 km/h 9 mph /  14.5 km/h 94 % 0 in /  0.0 mm
08:02 58.8 °F /  14.9 °C 57 °F /  13.9 °C 29.9 in /  1011.7 hPa SW 2 mph /  3.2 km/h 7 mph /  11.3 km/h 94 % 0 in /  0.0 mm
08:07 58.8 °F /  14.9 °C 57 °F /  13.9 °C 29.9 in /  1011.7 hPa SW 2 mph /  3.2 km/h 11 mph /  17.7 km/h 94 % 0 in /  0.0 mm
08:12 58.8 °F /  14.9 °C 57 °F /  13.9 °C 29.9 in /  1011.7 hPa NW 3 mph /  4.8 km/h 11 mph /  17.7 km/h 94 % 0 in /  0.0 mm
08:17 58.8 °F /  14.9 °C 57 °F /  13.9 °C 29.9 in /  1011.7 hPa WSW 7 mph /  11.3 km/h 11 mph /  17.7 km/h 94 % 0 in /  0.0 mm
08:22 59 °F /  15.0 °C 57.2 °F /  14.0 °C 29.9 in /  1011.7 hPa SW 5 mph /  8.0 km/h 7 mph /  11.3 km/h 94 % 0 in /  0.0 mm
08:27 59 °F /  15.0 °C 57.2 °F /  14.0 °C 29.9 in /  1012.1 hPa WSW 5 mph /  8.0 km/h 7 mph /  11.3 km/h 94 % 0 in /  0.0 mm
08:32 59.2 °F /  15.1 °C 57.4 °F /  14.1 °C 29.9 in /  1012.1 hPa SW 4 mph /  6.4 km/h 8 mph /  12.9 km/h 94 % 0 in /  0.0 mm
08:37 59.2 °F /  15.1 °C 57.4 °F /  14.1 °C 29.9 in /  1012.4 hPa SW 10 mph /  16.1 km/h 12 mph /  19.3 km/h 94 % 0 in /  0.0 mm
08:42 59.2 °F /  15.1 °C 57.4 °F /  14.1 °C 29.9 in /  1012.4 hPa WSW 4 mph /  6.4 km/h 12 mph /  19.3 km/h 94 % 0 in /  0.0 mm
08:47 59.4 °F /  15.2 °C 57.6 °F /  14.2 °C 29.9 in /  1012.4 hPa WSW 5 mph /  8.0 km/h 12 mph /  19.3 km/h 94 % 0 in /  0.0 mm
08:52 59.4 °F /  15.2 °C 57.6 °F /  14.2 °C 29.9 in /  1012.4 hPa SW 4 mph /  6.4 km/h 12 mph /  19.3 km/h 94 % 0 in /  0.0 mm
08:57 59.5 °F /  15.3 °C 57.6 °F /  14.2 °C 29.9 in /  1012.8 hPa SW 2 mph /  3.2 km/h 7 mph /  11.3 km/h 93 % 0 in /  0.0 mm
09:02 59.5 °F /  15.3 °C 57.6 °F /  14.2 °C 29.9 in /  1012.4 hPa SW 1 mph /  1.6 km/h 9 mph /  14.5 km/h 93 % 0 in /  0.0 mm
09:12 59.5 °F /  15.3 °C 57.6 °F /  14.2 °C 29.9 in /  1012.4 hPa WSW 3 mph /  4.8 km/h 7 mph /  11.3 km/h 93 % 0 in /  0.0 mm
09:17 59.7 °F /  15.4 °C 57.7 °F /  14.3 °C 29.9 in /  1012.4 hPa WSW 7 mph /  11.3 km/h 7 mph /  11.3 km/h 93 % 0 in /  0.0 mm
09:22 60.1 °F /  15.6 °C 58.1 °F /  14.5 °C 29.9 in /  1012.1 hPa West 7 mph /  11.3 km/h 9 mph /  14.5 km/h 93 % 0 in /  0.0 mm
09:32 61 °F /  16.1 °C 58.3 °F /  14.6 °C 29.9 in /  1012.1 hPa West 6 mph /  9.7 km/h 11 mph /  17.7 km/h 91 % 0 in /  0.0 mm
09:37 61.3 °F /  16.3 °C 58.5 °F /  14.7 °C 29.9 in /  1012.1 hPa West 7 mph /  11.3 km/h 12 mph /  19.3 km/h 90 % 0 in /  0.0 mm
09:42 61.3 °F /  16.3 °C 58.1 °F /  14.5 °C 29.9 in /  1012.4 hPa WSW 4 mph /  6.4 km/h 12 mph /  19.3 km/h 89 % 0 in /  0.0 mm
09:47 61.3 °F /  16.3 °C 58.1 °F /  14.5 °C 29.9 in /  1012.4 hPa WSW 4 mph /  6.4 km/h 12 mph /  19.3 km/h 89 % 0 in /  0.0 mm
09:57 61.3 °F /  16.3 °C 58.1 °F /  14.5 °C 29.9 in /  1012.4 hPa SW 9 mph /  14.5 km/h 10 mph /  16.1 km/h 89 % 0 in /  0.0 mm
10:02 61.2 °F /  16.2 °C 57.6 °F /  14.2 °C 29.9 in /  1012.4 hPa West 3 mph /  4.8 km/h 10 mph /  16.1 km/h 88 % 0 in /  0.0 mm
10:12 61.3 °F /  16.3 °C 57.7 °F /  14.3 °C 29.9 in /  1012.4 hPa West 6 mph /  9.7 km/h 12 mph /  19.3 km/h 88 % 0 in /  0.0 mm
10:17 61.5 °F /  16.4 °C 57.9 °F /  14.4 °C 29.9 in /  1012.4 hPa WSW 8 mph /  12.9 km/h 12 mph /  19.3 km/h 88 % 0 in /  0.0 mm
10:22 61.9 °F /  16.6 °C 58.3 °F /  14.6 °C 29.9 in /  1012.4 hPa SW 3 mph /  4.8 km/h 11 mph /  17.7 km/h 88 % 0 in /  0.0 mm
10:32 61.9 °F /  16.6 °C 57 °F /  13.9 °C 29.9 in /  1012.4 hPa West 10 mph /  16.1 km/h 17 mph /  27.4 km/h 84 % 0 in /  0.0 mm
10:42 61.9 °F /  16.6 °C 57.6 °F /  14.2 °C 29.9 in /  1012.4 hPa West 5 mph /  8.0 km/h 17 mph /  27.4 km/h 86 % 0 in /  0.0 mm
10:47 62.4 °F /  16.9 °C 58.5 °F /  14.7 °C 29.9 in /  1012.8 hPa WSW 9 mph /  14.5 km/h 17 mph /  27.4 km/h 87 % 0 in /  0.0 mm
10:52 63.1 °F /  17.3 °C 58.3 °F /  14.6 °C 29.9 in /  1012.8 hPa SW 9 mph /  14.5 km/h 14 mph /  22.5 km/h 84 % 0 in /  0.0 mm
11:02 64 °F /  17.8 °C 58.8 °F /  14.9 °C 29.9 in /  1012.8 hPa SW 6 mph /  9.7 km/h 13 mph /  20.9 km/h 83 % 0 in /  0.0 mm
11:12 64 °F /  17.8 °C 58.1 °F /  14.5 °C 29.9 in /  1012.8 hPa SW 12 mph /  19.3 km/h 17 mph /  27.4 km/h 81 % 0 in /  0.0 mm
11:17 63.9 °F /  17.7 °C 58.3 °F /  14.6 °C 29.9 in /  1012.8 hPa SW 12 mph /  19.3 km/h 17 mph /  27.4 km/h 82 % 0 in /  0.0 mm
11:22 63.7 °F /  17.6 °C 57.7 °F /  14.3 °C 29.9 in /  1012.8 hPa SW 10 mph /  16.1 km/h 17 mph /  27.4 km/h 81 % 0 in /  0.0 mm
11:32 63.7 °F /  17.6 °C 58.8 °F /  14.9 °C 29.9 in /  1013.1 hPa West 3 mph /  4.8 km/h 17 mph /  27.4 km/h 84 % 0 in /  0.0 mm
11:42 63.7 °F /  17.6 °C 58.8 °F /  14.9 °C 29.9 in /  1013.1 hPa West 4 mph /  6.4 km/h 17 mph /  27.4 km/h 84 % 0 in /  0.0 mm
11:47 63.7 °F /  17.6 °C 58.1 °F /  14.5 °C 29.9 in /  1013.1 hPa SW 9 mph /  14.5 km/h 17 mph /  27.4 km/h 82 % 0 in /  0.0 mm
11:52 63.9 °F /  17.7 °C 58.3 °F /  14.6 °C 29.9 in /  1013.1 hPa WNW 6 mph /  9.7 km/h 17 mph /  27.4 km/h 82 % 0 in /  0.0 mm
11:57 64.2 °F /  17.9 °C 57.9 °F /  14.4 °C 29.9 in /  1013.1 hPa WSW 10 mph /  16.1 km/h 14 mph /  22.5 km/h 80 % 0 in /  0.0 mm
12:02 64.2 °F /  17.9 °C 57.9 °F /  14.4 °C 29.9 in /  1013.1 hPa WSW 10 mph /  16.1 km/h 18 mph /  29.0 km/h 80 % 0 in /  0.0 mm
12:07 64.8 °F /  18.2 °C 58.1 °F /  14.5 °C 29.9 in /  1013.1 hPa WSW 7 mph /  11.3 km/h 20 mph /  32.2 km/h 79 % 0 in /  0.0 mm
12:12 65.1 °F /  18.4 °C 57.4 °F /  14.1 °C 29.9 in /  1013.1 hPa WSW 11 mph /  17.7 km/h 20 mph /  32.2 km/h 76 % 0 in /  0.0 mm
12:17 65.5 °F /  18.6 °C 57 °F /  13.9 °C 29.9 in /  1013.1 hPa West 11 mph /  17.7 km/h 19 mph /  30.6 km/h 74 % 0 in /  0.0 mm
12:22 65.1 °F /  18.4 °C 56.7 °F /  13.7 °C 29.9 in /  1013.4 hPa West 10 mph /  16.1 km/h 19 mph /  30.6 km/h 74 % 0 in /  0.0 mm
12:32 65.1 °F /  18.4 °C 57 °F /  13.9 °C 29.9 in /  1013.4 hPa West 7 mph /  11.3 km/h 19 mph /  30.6 km/h 75 % 0 in /  0.0 mm
12:42 65.3 °F /  18.5 °C 57.2 °F /  14.0 °C 29.9 in /  1013.4 hPa West 7 mph /  11.3 km/h 18 mph /  29.0 km/h 75 % 0 in /  0.0 mm
12:47 65.8 °F /  18.8 °C 58.1 °F /  14.5 °C 29.9 in /  1013.4 hPa WSW 3 mph /  4.8 km/h 18 mph /  29.0 km/h 76 % 0 in /  0.0 mm
12:52 66.6 °F /  19.2 °C 58.1 °F /  14.5 °C 29.9 in /  1013.4 hPa WSW 6 mph /  9.7 km/h 18 mph /  29.0 km/h 74 % 0 in /  0.0 mm
12:57 67.5 °F /  19.7 °C 58.5 °F /  14.7 °C 29.9 in /  1013.4 hPa West 4 mph /  6.4 km/h 12 mph /  19.3 km/h 73 % 0 in /  0.0 mm
13:02 67.3 °F /  19.6 °C 57.2 °F /  14.0 °C 29.9 in /  1013.4 hPa SW 12 mph /  19.3 km/h 12 mph /  19.3 km/h 70 % 0 in /  0.0 mm
13:07 67.1 °F /  19.5 °C 57.7 °F /  14.3 °C 29.9 in /  1013.4 hPa WSW 7 mph /  11.3 km/h 18 mph /  29.0 km/h 72 % 0 in /  0.0 mm
13:12 67.3 °F /  19.6 °C 57.6 °F /  14.2 °C 29.9 in /  1013.4 hPa WSW 7 mph /  11.3 km/h 19 mph /  30.6 km/h 71 % 0 in /  0.0 mm
13:17 67.3 °F /  19.6 °C 57.6 °F /  14.2 °C 29.9 in /  1013.4 hPa SW 8 mph /  12.9 km/h 19 mph /  30.6 km/h 71 % 0 in /  0.0 mm
13:22 67.5 °F /  19.7 °C 57 °F /  13.9 °C 29.9 in /  1013.4 hPa West 8 mph /  12.9 km/h 19 mph /  30.6 km/h 69 % 0 in /  0.0 mm
13:27 67.8 °F /  19.9 °C 58.1 °F /  14.5 °C 29.9 in /  1013.1 hPa WSW 9 mph /  14.5 km/h 18 mph /  29.0 km/h 71 % 0 in /  0.0 mm
13:32 68 °F /  20.0 °C 57.9 °F /  14.4 °C 29.9 in /  1013.4 hPa WSW 7 mph /  11.3 km/h 18 mph /  29.0 km/h 70 % 0 in /  0.0 mm
13:42 68.2 °F /  20.1 °C 57.6 °F /  14.2 °C 29.9 in /  1013.1 hPa SSW 4 mph /  6.4 km/h 20 mph /  32.2 km/h 69 % 0 in /  0.0 mm
13:47 68.7 °F /  20.4 °C 58.1 °F /  14.5 °C 29.9 in /  1013.1 hPa West 6 mph /  9.7 km/h 20 mph /  32.2 km/h 69 % 0 in /  0.0 mm
13:52 69.4 °F /  20.8 °C 57.6 °F /  14.2 °C 29.9 in /  1013.1 hPa SW 11 mph /  17.7 km/h 20 mph /  32.2 km/h 66 % 0 in /  0.0 mm
13:57 69.8 °F /  21.0 °C 57.6 °F /  14.2 °C 29.9 in /  1013.1 hPa WSW 12 mph /  19.3 km/h 14 mph /  22.5 km/h 65 % 0 in /  0.0 mm
14:02 69.6 °F /  20.9 °C 56.5 °F /  13.6 °C 29.9 in /  1013.1 hPa SW 5 mph /  8.0 km/h 15 mph /  24.1 km/h 63 % 0 in /  0.0 mm
14:07 69.6 °F /  20.9 °C 56.8 °F /  13.8 °C 29.9 in /  1013.1 hPa WSW 4 mph /  6.4 km/h 15 mph /  24.1 km/h 64 % 0 in /  0.0 mm
14:12 69.8 °F /  21.0 °C 56.1 °F /  13.4 °C 29.9 in /  1013.1 hPa SW 8 mph /  12.9 km/h 17 mph /  27.4 km/h 62 % 0 in /  0.0 mm
14:17 70.2 °F /  21.2 °C 57.9 °F /  14.4 °C 29.9 in /  1013.1 hPa SW 10 mph /  16.1 km/h 17 mph /  27.4 km/h 65 % 0 in /  0.0 mm
14:22 70.3 °F /  21.3 °C 57.2 °F /  14.0 °C 29.9 in /  1013.1 hPa SSW 9 mph /  14.5 km/h 17 mph /  27.4 km/h 63 % 0 in /  0.0 mm
14:27 70 °F /  21.1 °C 55.9 °F /  13.3 °C 29.9 in /  1013.1 hPa WSW 12 mph /  19.3 km/h 18 mph /  29.0 km/h 61 % 0 in /  0.0 mm
14:32 69.3 °F /  20.7 °C 56.1 °F /  13.4 °C 29.9 in /  1013.1 hPa WSW 7 mph /  11.3 km/h 18 mph /  29.0 km/h 63 % 0 in /  0.0 mm
14:37 69.3 °F /  20.7 °C 56.5 °F /  13.6 °C 29.9 in /  1013.1 hPa West 5 mph /  8.0 km/h 18 mph /  29.0 km/h 64 % 0 in /  0.0 mm
14:42 69.4 °F /  20.8 °C 56.3 °F /  13.5 °C 29.9 in /  1013.1 hPa West 9 mph /  14.5 km/h 18 mph /  29.0 km/h 63 % 0 in /  0.0 mm
14:47 69.4 °F /  20.8 °C 56.7 °F /  13.7 °C 29.9 in /  1013.1 hPa West 6 mph /  9.7 km/h 16 mph /  25.7 km/h 64 % 0 in /  0.0 mm
14:52 69.4 °F /  20.8 °C 56.7 °F /  13.7 °C 29.9 in /  1012.8 hPa WSW 6 mph /  9.7 km/h 16 mph /  25.7 km/h 64 % 0 in /  0.0 mm
14:57 69.6 °F /  20.9 °C 56.5 °F /  13.6 °C 29.9 in /  1012.8 hPa SW 9 mph /  14.5 km/h 14 mph /  22.5 km/h 63 % 0 in /  0.0 mm
15:02 69.3 °F /  20.7 °C 56.5 °F /  13.6 °C 29.9 in /  1013.1 hPa WNW 7 mph /  11.3 km/h 16 mph /  25.7 km/h 64 % 0 in /  0.0 mm
15:12 60.8 °F /  16.0 °C 55.6 °F /  13.1 °C 29.9 in /  1014.1 hPa NW 8 mph /  12.9 km/h 30 mph /  48.3 km/h 83 % 0.12 in /  3.0 mm
15:17 58.8 °F /  14.9 °C 55.9 °F /  13.3 °C 30 in /  1014.4 hPa WNW 6 mph /  9.7 km/h 30 mph /  48.3 km/h 90 % 0.22 in /  5.6 mm
15:22 58.6 °F /  14.8 °C 56.3 °F /  13.5 °C 30 in /  1014.4 hPa West 2 mph /  3.2 km/h 30 mph /  48.3 km/h 92 % 0.28 in /  7.1 mm
15:32 58.6 °F /  14.8 °C 56.3 °F /  13.5 °C 29.9 in /  1014.1 hPa WNW 5 mph /  8.0 km/h 13 mph /  20.9 km/h 92 % 0.35 in /  8.9 mm
15:37 58.6 °F /  14.8 °C 56.7 °F /  13.7 °C 29.9 in /  1014.1 hPa NW 5 mph /  8.0 km/h 13 mph /  20.9 km/h 93 % 0.35 in /  8.9 mm
15:42 59 °F /  15.0 °C 57 °F /  13.9 °C 29.9 in /  1014.1 hPa West 7 mph /  11.3 km/h 11 mph /  17.7 km/h 93 % 0.35 in /  8.9 mm
15:47 59.2 °F /  15.1 °C 56.8 °F /  13.8 °C 29.9 in /  1014.1 hPa West 4 mph /  6.4 km/h 11 mph /  17.7 km/h 92 % 0.35 in /  8.9 mm
15:52 59.4 °F /  15.2 °C 57 °F /  13.9 °C 29.9 in /  1014.1 hPa SW 2 mph /  3.2 km/h 11 mph /  17.7 km/h 92 % 0.35 in /  8.9 mm
15:57 59.5 °F /  15.3 °C 56.8 °F /  13.8 °C 29.9 in /  1014.1 hPa South 7 mph /  11.3 km/h 11 mph /  17.7 km/h 91 % 0.35 in /  8.9 mm
16:02 60.3 °F /  15.7 °C 57.9 °F /  14.4 °C 29.9 in /  1014.1 hPa SW 3 mph /  4.8 km/h 8 mph /  12.9 km/h 92 % 0.35 in /  8.9 mm
16:07 60.6 °F /  15.9 °C 57.7 °F /  14.3 °C 29.9 in /  1014.1 hPa SW 3 mph /  4.8 km/h 10 mph /  16.1 km/h 90 % 0.35 in /  8.9 mm
16:12 61.2 °F /  16.2 °C 58.3 °F /  14.6 °C 29.9 in /  1014.1 hPa WSW 4 mph /  6.4 km/h 10 mph /  16.1 km/h 90 % 0.2 in /  5.1 mm
16:17 61.9 °F /  16.6 °C 58.6 °F /  14.8 °C 29.9 in /  1014.1 hPa SW 5 mph /  8.0 km/h 10 mph /  16.1 km/h 89 % 0.09 in /  2.3 mm
16:22 62.4 °F /  16.9 °C 58.8 °F /  14.9 °C 29.9 in /  1014.1 hPa SSW 1 mph /  1.6 km/h 9 mph /  14.5 km/h 88 % 0.05 in /  1.3 mm
16:27 63.1 °F /  17.3 °C 59.9 °F /  15.5 °C 29.9 in /  1014.1 hPa SW 5 mph /  8.0 km/h 9 mph /  14.5 km/h 89 % 0.02 in /  0.5 mm
16:32 63.7 °F /  17.6 °C 60.1 °F /  15.6 °C 30 in /  1014.4 hPa SW 6 mph /  9.7 km/h 9 mph /  14.5 km/h 88 % 0.01 in /  0.3 mm
16:37 64.2 °F /  17.9 °C 61 °F /  16.1 °C 30 in /  1014.4 hPa SW 5 mph /  8.0 km/h 9 mph /  14.5 km/h 89 % 0 in /  0.0 mm
16:42 64.9 °F /  18.3 °C 60.6 °F /  15.9 °C 30 in /  1014.4 hPa SW 10 mph /  16.1 km/h 11 mph /  17.7 km/h 86 % 0 in /  0.0 mm
16:52 65.7 °F /  18.7 °C 59 °F /  15.0 °C 30 in /  1014.4 hPa West 9 mph /  14.5 km/h 11 mph /  17.7 km/h 79 % 0 in /  0.0 mm
16:57 65.8 °F /  18.8 °C 58.5 °F /  14.7 °C 30 in /  1014.4 hPa SW 9 mph /  14.5 km/h 12 mph /  19.3 km/h 77 % 0 in /  0.0 mm
17:02 65.8 °F /  18.8 °C 59.5 °F /  15.3 °C 30 in /  1014.4 hPa West 10 mph /  16.1 km/h 13 mph /  20.9 km/h 80 % 0 in /  0.0 mm
17:07 66.2 °F /  19.0 °C 58.1 °F /  14.5 °C 30 in /  1014.4 hPa WSW 4 mph /  6.4 km/h 16 mph /  25.7 km/h 75 % 0 in /  0.0 mm
17:12 66.4 °F /  19.1 °C 58.6 °F /  14.8 °C 30 in /  1014.4 hPa WSW 6 mph /  9.7 km/h 16 mph /  25.7 km/h 76 % 0 in /  0.0 mm
17:17 66.2 °F /  19.0 °C 58.1 °F /  14.5 °C 30 in /  1014.4 hPa SW 8 mph /  12.9 km/h 16 mph /  25.7 km/h 75 % 0 in /  0.0 mm
17:22 66.7 °F /  19.3 °C 58.6 °F /  14.8 °C 30 in /  1014.4 hPa WSW 8 mph /  12.9 km/h 12 mph /  19.3 km/h 75 % 0 in /  0.0 mm
17:32 67.1 °F /  19.5 °C 58.1 °F /  14.5 °C 30 in /  1014.8 hPa SW 8 mph /  12.9 km/h 13 mph /  20.9 km/h 73 % 0 in /  0.0 mm
17:37 67.3 °F /  19.6 °C 58.3 °F /  14.6 °C 30 in /  1014.8 hPa WSW 7 mph /  11.3 km/h 13 mph /  20.9 km/h 73 % 0 in /  0.0 mm
17:42 67.3 °F /  19.6 °C 55.9 °F /  13.3 °C 30 in /  1014.4 hPa West 7 mph /  11.3 km/h 16 mph /  25.7 km/h 67 % 0 in /  0.0 mm
17:47 67.1 °F /  19.5 °C 56.1 °F /  13.4 °C 30 in /  1014.8 hPa West 6 mph /  9.7 km/h 17 mph /  27.4 km/h 68 % 0 in /  0.0 mm
17:52 66.9 °F /  19.4 °C 56.8 °F /  13.8 °C 30 in /  1014.8 hPa NW 4 mph /  6.4 km/h 17 mph /  27.4 km/h 70 % 0 in /  0.0 mm
17:57 66.9 °F /  19.4 °C 57.6 °F /  14.2 °C 30 in /  1014.8 hPa West 5 mph /  8.0 km/h 17 mph /  27.4 km/h 72 % 0 in /  0.0 mm
18:02 67.1 °F /  19.5 °C 56.7 °F /  13.7 °C 30 in /  1014.4 hPa WSW 6 mph /  9.7 km/h 12 mph /  19.3 km/h 69 % 0 in /  0.0 mm
18:07 66.9 °F /  19.4 °C 56.8 °F /  13.8 °C 30 in /  1014.8 hPa SW 7 mph /  11.3 km/h 10 mph /  16.1 km/h 70 % 0 in /  0.0 mm
18:12 66.6 °F /  19.2 °C 56.5 °F /  13.6 °C 30 in /  1014.8 hPa WSW 2 mph /  3.2 km/h 12 mph /  19.3 km/h 70 % 0 in /  0.0 mm
18:17 66.7 °F /  19.3 °C 57.4 °F /  14.1 °C 30 in /  1014.4 hPa WSW 5 mph /  8.0 km/h 13 mph /  20.9 km/h 72 % 0 in /  0.0 mm
18:22 66.9 °F /  19.4 °C 57.2 °F /  14.0 °C 30 in /  1014.4 hPa WSW 3 mph /  4.8 km/h 13 mph /  20.9 km/h 71 % 0 in /  0.0 mm
18:32 66.6 °F /  19.2 °C 57.2 °F /  14.0 °C 30 in /  1014.4 hPa West 3 mph /  4.8 km/h 12 mph /  19.3 km/h 72 % 0 in /  0.0 mm
18:37 66.9 °F /  19.4 °C 57.6 °F /  14.2 °C 30 in /  1014.8 hPa West 3 mph /  4.8 km/h 10 mph /  16.1 km/h 72 % 0 in /  0.0 mm
18:42 67.3 °F /  19.6 °C 57.6 °F /  14.2 °C 30 in /  1014.8 hPa WSW 7 mph /  11.3 km/h 10 mph /  16.1 km/h 71 % 0 in /  0.0 mm
18:47 67.1 °F /  19.5 °C 57 °F /  13.9 °C 30 in /  1014.8 hPa WSW 8 mph /  12.9 km/h 10 mph /  16.1 km/h 70 % 0 in /  0.0 mm
18:52 66.9 °F /  19.4 °C 56.8 °F /  13.8 °C 30 in /  1014.8 hPa WSW 2 mph /  3.2 km/h 11 mph /  17.7 km/h 70 % 0 in /  0.0 mm
18:57 66.9 °F /  19.4 °C 56.8 °F /  13.8 °C 30 in /  1014.8 hPa WSW 7 mph /  11.3 km/h 11 mph /  17.7 km/h 70 % 0 in /  0.0 mm
19:02 66.9 °F /  19.4 °C 56.5 °F /  13.6 °C 30 in /  1014.8 hPa WSW 5 mph /  8.0 km/h 12 mph /  19.3 km/h 69 % 0 in /  0.0 mm
19:07 67.1 °F /  19.5 °C 56.1 °F /  13.4 °C 30 in /  1014.8 hPa SW 4 mph /  6.4 km/h 12 mph /  19.3 km/h 68 % 0 in /  0.0 mm
19:12 67.3 °F /  19.6 °C 55 °F /  12.8 °C 30 in /  1014.8 hPa West 21 mph /  33.8 km/h 21 mph /  33.8 km/h 65 % 0 in /  0.0 mm
19:17 67.6 °F /  19.8 °C 54.1 °F /  12.3 °C 30 in /  1014.8 hPa WSW 13 mph /  20.9 km/h 21 mph /  33.8 km/h 62 % 0 in /  0.0 mm
19:22 67.6 °F /  19.8 °C 54.1 °F /  12.3 °C 30 in /  1014.8 hPa West 8 mph /  12.9 km/h 21 mph /  33.8 km/h 62 % 0 in /  0.0 mm
19:27 67.6 °F /  19.8 °C 54.1 °F /  12.3 °C 30 in /  1014.8 hPa West 7 mph /  11.3 km/h 21 mph /  33.8 km/h 62 % 0 in /  0.0 mm
19:32 67.5 °F /  19.7 °C 54.5 °F /  12.5 °C 30 in /  1015.1 hPa WSW 10 mph /  16.1 km/h 17 mph /  27.4 km/h 63 % 0 in /  0.0 mm
19:37 67.3 °F /  19.6 °C 54.7 °F /  12.6 °C 30 in /  1015.1 hPa WSW 7 mph /  11.3 km/h 14 mph /  22.5 km/h 64 % 0 in /  0.0 mm
19:42 66.6 °F /  19.2 °C 54 °F /  12.2 °C 30 in /  1015.1 hPa West 7 mph /  11.3 km/h 14 mph /  22.5 km/h 64 % 0 in /  0.0 mm
19:47 66.4 °F /  19.1 °C 54.3 °F /  12.4 °C 30 in /  1015.1 hPa WNW 9 mph /  14.5 km/h 14 mph /  22.5 km/h 65 % 0 in /  0.0 mm
19:52 66.4 °F /  19.1 °C 55 °F /  12.8 °C 30 in /  1015.1 hPa WSW 5 mph /  8.0 km/h 14 mph /  22.5 km/h 67 % 0 in /  0.0 mm
19:57 66.4 °F /  19.1 °C 55 °F /  12.8 °C 30 in /  1015.1 hPa WNW 4 mph /  6.4 km/h 13 mph /  20.9 km/h 67 % 0 in /  0.0 mm
20:02 66.4 °F /  19.1 °C 55 °F /  12.8 °C 30 in /  1015.1 hPa SW 2 mph /  3.2 km/h 11 mph /  17.7 km/h 67 % 0 in /  0.0 mm
20:07 66.4 °F /  19.1 °C 55 °F /  12.8 °C 30 in /  1015.1 hPa WSW 3 mph /  4.8 km/h 10 mph /  16.1 km/h 67 % 0 in /  0.0 mm
20:12 66.2 °F /  19.0 °C 54.9 °F /  12.7 °C 30 in /  1015.1 hPa WSW 6 mph /  9.7 km/h 9 mph /  14.5 km/h 67 % 0 in /  0.0 mm
20:17 66.4 °F /  19.1 °C 55.6 °F /  13.1 °C 30 in /  1015.1 hPa WSW 5 mph /  8.0 km/h 9 mph /  14.5 km/h 68 % 0 in /  0.0 mm
20:22 66.4 °F /  19.1 °C 55.6 °F /  13.1 °C 30 in /  1015.5 hPa SW 5 mph /  8.0 km/h 8 mph /  12.9 km/h 68 % 0 in /  0.0 mm
20:27 66.4 °F /  19.1 °C 55.9 °F /  13.3 °C 30 in /  1015.5 hPa West 3 mph /  4.8 km/h 9 mph /  14.5 km/h 69 % 0 in /  0.0 mm
20:32 66.2 °F /  19.0 °C 55.4 °F /  13.0 °C 30 in /  1015.5 hPa WSW 4 mph /  6.4 km/h 9 mph /  14.5 km/h 68 % 0 in /  0.0 mm
20:37 65.7 °F /  18.7 °C 54.9 °F /  12.7 °C 30 in /  1015.5 hPa WSW 6 mph /  9.7 km/h 9 mph /  14.5 km/h 68 % 0 in /  0.0 mm
20:42 65.1 °F /  18.4 °C 53.1 °F /  11.7 °C 30 in /  1015.5 hPa WSW 6 mph /  9.7 km/h 10 mph /  16.1 km/h 65 % 0 in /  0.0 mm
20:47 64.8 °F /  18.2 °C 51.8 °F /  11.0 °C 30 in /  1015.8 hPa West 5 mph /  8.0 km/h 10 mph /  16.1 km/h 63 % 0 in /  0.0 mm
20:52 64.6 °F /  18.1 °C 50.9 °F /  10.5 °C 30 in /  1015.8 hPa WSW 5 mph /  8.0 km/h 11 mph /  17.7 km/h 61 % 0 in /  0.0 mm
20:57 64.2 °F /  17.9 °C 50.5 °F /  10.3 °C 30 in /  1016.1 hPa WSW 5 mph /  8.0 km/h 12 mph /  19.3 km/h 61 % 0 in /  0.0 mm
21:02 64 °F /  17.8 °C 50.4 °F /  10.2 °C 30 in /  1016.1 hPa SW 2 mph /  3.2 km/h 12 mph /  19.3 km/h 61 % 0 in /  0.0 mm
21:07 63.9 °F /  17.7 °C 51.1 °F /  10.6 °C 30 in /  1016.1 hPa SW 7 mph /  11.3 km/h 12 mph /  19.3 km/h 63 % 0 in /  0.0 mm
21:12 63.3 °F /  17.4 °C 50.9 °F /  10.5 °C 30 in /  1016.1 hPa SW 4 mph /  6.4 km/h 12 mph /  19.3 km/h 64 % 0 in /  0.0 mm
21:17 63.1 °F /  17.3 °C 51.3 °F /  10.7 °C 30 in /  1016.1 hPa SW 4 mph /  6.4 km/h 11 mph /  17.7 km/h 65 % 0 in /  0.0 mm
21:22 63 °F /  17.2 °C 51.8 °F /  11.0 °C 30 in /  1016.1 hPa WSW 6 mph /  9.7 km/h 8 mph /  12.9 km/h 67 % 0 in /  0.0 mm
21:27 62.6 °F /  17.0 °C 52.3 °F /  11.3 °C 30 in /  1016.5 hPa SW 5 mph /  8.0 km/h 7 mph /  11.3 km/h 69 % 0 in /  0.0 mm
21:32 62.4 °F /  16.9 °C 52.5 °F /  11.4 °C 30 in /  1016.5 hPa West 3 mph /  4.8 km/h 7 mph /  11.3 km/h 70 % 0 in /  0.0 mm
21:37 62.1 °F /  16.7 °C 52.9 °F /  11.6 °C 30 in /  1016.5 hPa WSW 5 mph /  8.0 km/h 7 mph /  11.3 km/h 72 % 0 in /  0.0 mm
21:42 62.1 °F /  16.7 °C 52.9 °F /  11.6 °C 30 in /  1016.5 hPa SW 1 mph /  1.6 km/h 8 mph /  12.9 km/h 72 % 0 in /  0.0 mm
21:47 61.9 °F /  16.6 °C 53.1 °F /  11.7 °C 30 in /  1016.5 hPa West 2 mph /  3.2 km/h 8 mph /  12.9 km/h 73 % 0 in /  0.0 mm
21:52 61.5 °F /  16.4 °C 53.2 °F /  11.8 °C 30 in /  1016.5 hPa West 2 mph /  3.2 km/h 8 mph /  12.9 km/h 74 % 0 in /  0.0 mm
21:57 61.3 °F /  16.3 °C 53.1 °F /  11.7 °C 30 in /  1016.5 hPa WSW 4 mph /  6.4 km/h 6 mph /  9.7 km/h 74 % 0 in /  0.0 mm
22:02 61.3 °F /  16.3 °C 52.7 °F /  11.5 °C 30 in /  1016.8 hPa West 3 mph /  4.8 km/h 7 mph /  11.3 km/h 73 % 0 in /  0.0 mm
22:07 61.2 °F /  16.2 °C 52.5 °F /  11.4 °C 30 in /  1016.8 hPa SW 3 mph /  4.8 km/h 7 mph /  11.3 km/h 73 % 0 in /  0.0 mm
22:12 61 °F /  16.1 °C 52.3 °F /  11.3 °C 30 in /  1016.8 hPa West 2 mph /  3.2 km/h 7 mph /  11.3 km/h 73 % 0 in /  0.0 mm
22:17 60.8 °F /  16.0 °C 52.5 °F /  11.4 °C 30 in /  1016.8 hPa West 2 mph /  3.2 km/h 7 mph /  11.3 km/h 74 % 0 in /  0.0 mm
22:22 60.4 °F /  15.8 °C 52.5 °F /  11.4 °C 30 in /  1016.8 hPa SW 1 mph /  1.6 km/h 5 mph /  8.0 km/h 75 % 0 in /  0.0 mm
22:32 60.3 °F /  15.7 °C 52.3 °F /  11.3 °C 30 in /  1016.8 hPa SSW 1 mph /  1.6 km/h 3 mph /  4.8 km/h 75 % 0 in /  0.0 mm
22:37 59.5 °F /  15.3 °C 52.3 °F /  11.3 °C 30 in /  1016.8 hPa SSW 2 mph /  3.2 km/h 3 mph /  4.8 km/h 77 % 0 in /  0.0 mm
22:42 59.4 °F /  15.2 °C 52.5 °F /  11.4 °C 30 in /  1016.8 hPa SW 2 mph /  3.2 km/h 4 mph /  6.4 km/h 78 % 0 in /  0.0 mm
22:47 59.2 °F /  15.1 °C 52.7 °F /  11.5 °C 30 in /  1017.2 hPa SW 2 mph /  3.2 km/h 4 mph /  6.4 km/h 79 % 0 in /  0.0 mm
22:52 59.4 °F /  15.2 °C 52.5 °F /  11.4 °C 30 in /  1017.2 hPa Calm   5 mph /  8.0 km/h 78 % 0 in /  0.0 mm
22:57 59.2 °F /  15.1 °C 52.7 °F /  11.5 °C 30 in /  1017.2 hPa Calm   5 mph /  8.0 km/h 79 % 0 in /  0.0 mm
23:02 58.8 °F /  14.9 °C 52.7 °F /  11.5 °C 30 in /  1017.2 hPa SW 2 mph /  3.2 km/h 5 mph /  8.0 km/h 80 % 0 in /  0.0 mm
23:07 58.8 °F /  14.9 °C 52.7 °F /  11.5 °C 30 in /  1017.2 hPa Calm   4 mph /  6.4 km/h 80 % 0 in /  0.0 mm
23:12 59 °F /  15.0 °C 52.5 °F /  11.4 °C 30 in /  1017.2 hPa WSW 2 mph /  3.2 km/h 4 mph /  6.4 km/h 79 % 0 in /  0.0 mm
23:17 59.2 °F /  15.1 °C 52.3 °F /  11.3 °C 30 in /  1017.2 hPa SW 2 mph /  3.2 km/h 8 mph /  12.9 km/h 78 % 0 in /  0.0 mm
23:22 59.4 °F /  15.2 °C 52.5 °F /  11.4 °C 30 in /  1017.2 hPa SSW 1 mph /  1.6 km/h 8 mph /  12.9 km/h 78 % 0 in /  0.0 mm
23:27 58.8 °F /  14.9 °C 53.1 °F /  11.7 °C 30 in /  1017.2 hPa SSE 1 mph /  1.6 km/h 7 mph /  11.3 km/h 81 % 0 in /  0.0 mm
23:32 58.6 °F /  14.8 °C 53.2 °F /  11.8 °C 30 in /  1017.2 hPa SSW 2 mph /  3.2 km/h 7 mph /  11.3 km/h 82 % 0 in /  0.0 mm
23:42 58.5 °F /  14.7 °C 53.2 °F /  11.8 °C 30.1 in /  1017.5 hPa SSW 2 mph /  3.2 km/h 5 mph /  8.0 km/h 83 % 0 in /  0.0 mm
23:47 58.3 °F /  14.6 °C 53.1 °F /  11.7 °C 30.1 in /  1017.5 hPa SW 1 mph /  1.6 km/h 5 mph /  8.0 km/h 83 % 0 in /  0.0 mm
23:52 58.5 °F /  14.7 °C 53.2 °F /  11.8 °C 30.1 in /  1017.5 hPa SW 1 mph /  1.6 km/h 4 mph /  6.4 km/h 83 % 0 in /  0.0 mm
Meteo18
Compliments of Weather Underground - 4 mb

Script developed by  Jim McMurry - jmcmurry@mwt.net Adapted for the template by  Wim van der Kuil - Leuven-Template.eu

You find our weather info also at:

European Weather Network

Weather Underground

Equipment we use:

Weather-station
Davis Vue

Weather-program
Meteohub

Weather-server
Raspberry PI 2 B+

Provider
1 and 1

Davis Vue

Meteohub

Raspberry PI 2 B+

1 and 1